Time;durP1;ratioP1;P1;durP2;ratioP2;P2;SDS_P1;SDS_P2;PMS_P1;PMS_P2;Temp;Humidity;BMP_temperature;BMP_pressure;BME280_temperature;BME280_humidity;BME280_pressure;Samples;Min_cycle;Max_cycle;Signal;HPM_P1;HPM_P2
2024/04/22 00:00:59;;;;;;;3.50;3.30;;;4.00;64.40;;;;;;5313523;27;20314;-65
2024/04/22 00:03:24;;;;;;;3.47;3.27;;;4.00;64.20;;;;;;5299368;27;20258;-65
2024/04/22 00:05:53;;;;;;;3.00;2.90;;;4.00;63.80;;;;;;5306838;27;20281;-68
2024/04/22 00:08:18;;;;;;;3.07;2.87;;;3.90;64.80;;;;;;5300677;27;20393;-65
2024/04/22 00:10:46;;;;;;;2.97;2.80;;;4.00;64.10;;;;;;5311547;27;20772;-66
2024/04/22 00:13:12;;;;;;;2.83;2.70;;;3.90;64.20;;;;;;5305782;27;20670;-65
2024/04/22 00:15:40;;;;;;;3.00;2.90;;;3.80;64.40;;;;;;5312240;27;20238;-65
2024/04/22 00:18:06;;;;;;;3.23;3.03;;;3.90;64.40;;;;;;5303193;27;20235;-65
2024/04/22 00:20:34;;;;;;;3.03;2.87;;;3.90;64.00;;;;;;5304599;27;20320;-65
2024/04/22 00:22:59;;;;;;;3.30;3.10;;;3.80;65.20;;;;;;5312840;27;20241;-65
2024/04/22 00:25:28;;;;;;;3.40;3.20;;;3.90;64.90;;;;;;5301399;27;20241;-65
2024/04/22 00:27:53;;;;;;;3.50;3.30;;;3.90;64.40;;;;;;5300835;27;20238;-65
2024/04/22 00:30:21;;;;;;;3.03;2.93;;;3.80;64.80;;;;;;5312054;27;20246;-65
2024/04/22 00:32:47;;;;;;;2.97;2.77;;;4.00;64.00;;;;;;5270484;27;20287;-65
2024/04/22 00:35:16;;;;;;;2.73;2.63;;;3.90;63.80;;;;;;5310529;26;21012;-65
2024/04/22 00:37:41;;;;;;;2.93;2.73;;;3.80;63.80;;;;;;5312497;26;20235;-65
2024/04/22 00:40:09;;;;;;;3.13;2.93;;;3.90;64.70;;;;;;5312372;27;20281;-65
2024/04/22 00:42:35;;;;;;;3.10;2.90;;;3.90;64.70;;;;;;5302106;27;20363;-65
2024/04/22 00:45:03;;;;;;;3.40;3.20;;;3.90;64.10;;;;;;5282077;27;20250;-65
2024/04/22 00:47:29;;;;;;;3.07;2.87;;;3.90;63.80;;;;;;5312337;27;20322;-65
2024/04/22 00:49:57;;;;;;;3.73;3.53;;;3.70;64.80;;;;;;5312126;27;20238;-65
2024/04/22 00:52:23;;;;;;;3.57;3.37;;;3.60;64.20;;;;;;5305255;27;20713;-65
2024/04/22 00:54:51;;;;;;;3.43;3.23;;;3.50;64.80;;;;;;5309641;26;20254;-65
2024/04/22 00:57:16;;;;;;;3.47;3.27;;;3.70;65.00;;;;;;5303016;27;20370;-65
2024/04/22 00:59:45;;;;;;;3.60;3.40;;;3.80;64.10;;;;;;5300247;27;20234;-65
2024/04/22 01:02:10;;;;;;;3.70;3.50;;;3.90;64.00;;;;;;5308087;27;20249;-65
2024/04/22 01:04:38;;;;;;;3.63;3.37;;;3.90;63.40;;;;;;5300214;27;20241;-65
2024/04/22 01:07:04;;;;;;;3.73;3.43;;;3.90;64.00;;;;;;5311401;27;20634;-65
2024/04/22 01:09:32;;;;;;;3.60;3.40;;;3.80;64.10;;;;;;5306405;27;20246;-66
2024/04/22 01:11:58;;;;;;;4.00;3.53;;;3.90;64.10;;;;;;5305483;27;20392;-65
2024/04/22 01:14:26;;;;;;;3.93;3.70;;;3.80;64.40;;;;;;5307158;27;20254;-65
2024/04/22 01:16:52;;;;;;;4.10;3.80;;;3.80;64.80;;;;;;5295671;27;20250;-65
2024/04/22 01:19:20;;;;;;;4.30;4.00;;;3.80;64.60;;;;;;5311137;27;20343;-65
2024/04/22 01:21:45;;;;;;;4.20;3.90;;;3.80;64.80;;;;;;5311469;27;21032;-65
2024/04/22 01:24:13;;;;;;;4.00;3.70;;;3.90;65.00;;;;;;5297419;27;20239;-65
2024/04/22 01:26:39;;;;;;;4.20;3.90;;;3.90;64.90;;;;;;5281601;27;20331;-65
2024/04/22 01:29:07;;;;;;;5.03;4.63;;;3.90;64.70;;;;;;5303172;27;20586;-65
2024/04/22 01:31:33;;;;;;;5.17;4.77;;;4.00;64.70;;;;;;5310791;27;20374;-65
2024/04/22 01:34:01;;;;;;;5.13;4.73;;;4.00;64.70;;;;;;5307316;27;20250;-65
2024/04/22 01:36:27;;;;;;;6.17;5.67;;;4.00;64.60;;;;;;5311475;27;20281;-65
2024/04/22 01:38:55;;;;;;;6.47;5.97;;;3.80;64.70;;;;;;5309892;27;20245;-65
2024/04/22 01:41:20;;;;;;;6.53;6.00;;;3.70;65.70;;;;;;5311588;27;20369;-65
2024/04/22 01:43:49;;;;;;;6.57;6.03;;;3.80;65.80;;;;;;5308073;27;20242;-65
2024/04/22 01:46:14;;;;;;;6.77;6.17;;;4.00;65.50;;;;;;5311551;27;20305;-65
2024/04/22 01:48:42;;;;;;;7.00;6.40;;;4.10;65.10;;;;;;5302347;27;20352;-65
2024/04/22 01:51:08;;;;;;;7.37;6.70;;;4.10;65.10;;;;;;5305278;27;20289;-66
2024/04/22 01:53:36;;;;;;;7.80;7.10;;;4.10;65.30;;;;;;5280768;27;20356;-65
2024/04/22 01:56:02;;;;;;;7.67;6.97;;;3.90;65.10;;;;;;5311037;27;20744;-65
2024/04/22 01:58:30;;;;;;;8.00;7.40;;;4.00;65.20;;;;;;5307835;27;20248;-65
2024/04/22 02:00:56;;;;;;;7.37;6.67;;;4.10;64.40;;;;;;5300842;27;20323;-65
2024/04/22 02:03:24;;;;;;;7.20;6.60;;;4.00;63.80;;;;;;5310330;27;20351;-65
2024/04/22 02:05:50;;;;;;;7.57;6.97;;;4.10;63.50;;;;;;5306109;27;20800;-65
2024/04/22 02:08:18;;;;;;;6.97;6.33;;;4.00;62.60;;;;;;5296666;26;20287;-65
2024/04/22 02:10:43;;;;;;;8.47;6.73;;;4.00;63.50;;;;;;5311797;27;20309;-65
2024/04/22 02:13:12;;;;;;;7.90;7.20;;;4.00;63.70;;;;;;5311612;27;20352;-66
2024/04/22 02:15:37;;;;;;;8.77;7.70;;;4.10;63.30;;;;;;5317581;27;20275;-66
2024/04/22 02:18:06;;;;;;;7.07;6.47;;;3.90;63.40;;;;;;5313566;27;20331;-65
2024/04/22 02:20:32;;;;;;;7.70;7.07;;;3.90;62.80;;;;;;5298062;27;20234;-65
2024/04/22 02:23:00;;;;;;;8.13;7.43;;;3.90;62.50;;;;;;5308570;27;20329;-65
2024/04/22 02:25:25;;;;;;;7.27;6.53;;;3.90;63.20;;;;;;5297077;27;20350;-65
2024/04/22 02:27:54;;;;;;;8.07;7.37;;;3.90;62.70;;;;;;5307655;27;20656;-65
2024/04/22 02:30:19;;;;;;;8.67;7.60;;;3.90;62.70;;;;;;5309672;27;20254;-65
2024/04/22 02:32:47;;;;;;;7.70;7.00;;;3.90;62.50;;;;;;5310452;27;20347;-65
2024/04/22 02:35:13;;;;;;;7.93;7.13;;;3.80;63.30;;;;;;5310226;27;20321;-65
2024/04/22 02:37:41;;;;;;;7.80;7.13;;;3.80;63.20;;;;;;5309402;27;20351;-65
2024/04/22 02:40:07;;;;;;;8.37;7.57;;;3.90;62.50;;;;;;5308604;27;20638;-65
2024/04/22 02:42:36;;;;;;;7.77;7.07;;;3.80;63.70;;;;;;5294982;27;20372;-66
2024/04/22 02:45:01;;;;;;;8.37;7.57;;;3.90;63.90;;;;;;5299762;27;20242;-66
2024/04/22 02:47:30;;;;;;;7.37;6.73;;;3.90;64.00;;;;;;5309881;27;20296;-65
2024/04/22 02:49:55;;;;;;;7.67;6.93;;;3.90;63.70;;;;;;5312771;27;20700;-65
2024/04/22 02:52:23;;;;;;;9.43;7.87;;;3.80;62.50;;;;;;5313217;27;20356;-65
2024/04/22 02:54:50;;;;;;;7.80;7.17;;;3.90;63.10;;;;;;5298670;27;20299;-65
2024/04/22 02:57:18;;;;;;;12.17;9.50;;;3.80;63.00;;;;;;5310877;27;20284;-65
2024/04/22 02:59:44;;;;;;;9.07;7.50;;;3.80;63.50;;;;;;5288614;27;20683;-65
2024/04/22 03:02:12;;;;;;;7.57;6.97;;;3.80;63.60;;;;;;5310489;27;20752;-65
2024/04/22 03:04:38;;;;;;;6.90;6.30;;;3.80;62.60;;;;;;5311935;27;20340;-65
2024/04/22 03:07:07;;;;;;;9.47;6.93;;;3.80;63.00;;;;;;5312567;27;20243;-65
2024/04/22 03:09:35;;;;;;;7.60;6.90;;;3.90;62.50;;;;;;5312758;27;20379;-65
2024/04/22 03:12:03;;;;;;;6.87;6.23;;;3.90;62.60;;;;;;5313219;27;20242;-65
2024/04/22 03:14:28;;;;;;;7.33;6.27;;;3.90;62.60;;;;;;5308184;27;20298;-65
2024/04/22 03:16:57;;;;;;;8.13;7.43;;;3.80;61.80;;;;;;5292554;27;20344;-65
2024/04/22 03:19:22;;;;;;;7.80;6.90;;;3.60;61.60;;;;;;5290353;26;20288;-65
2024/04/22 03:21:50;;;;;;;6.60;6.00;;;3.70;62.40;;;;;;5307199;27;20246;-65
2024/04/22 03:24:16;;;;;;;6.57;5.93;;;3.60;62.30;;;;;;5312305;27;20612;-65
2024/04/22 03:26:44;;;;;;;6.57;5.97;;;3.70;62.60;;;;;;5312823;27;20328;-65
2024/04/22 03:29:10;;;;;;;7.37;6.67;;;3.70;62.40;;;;;;5310540;27;20349;-65
2024/04/22 03:31:38;;;;;;;6.27;5.77;;;3.80;62.00;;;;;;5306650;27;20292;-65
2024/04/22 03:34:04;;;;;;;7.17;6.47;;;3.80;61.50;;;;;;5307465;27;20325;-65
2024/04/22 03:36:32;;;;;;;7.00;6.30;;;3.80;61.60;;;;;;5307508;26;20650;-65
2024/04/22 03:39:00;;;;;;;6.43;5.83;;;3.80;62.10;;;;;;5306008;27;20629;-65
2024/04/22 03:41:28;;;;;;;7.57;6.77;;;3.80;62.50;;;;;;5298699;27;20365;-65
2024/04/22 03:43:56;;;;;;;6.77;6.20;;;3.70;62.40;;;;;;5309239;27;20361;-66
2024/04/22 03:51:53;;;;;;;8.57;6.23;;;3.80;61.60;;;;;;5315134;27;20309;-66
2024/04/22 03:54:21;;;;;;;6.20;5.70;;;3.80;62.20;;;;;;5304711;26;20773;-66
2024/04/22 03:56:47;;;;;;;6.70;6.10;;;3.70;62.00;;;;;;5294499;27;20238;-66
2024/04/22 03:59:15;;;;;;;6.43;5.87;;;3.70;62.00;;;;;;5309183;27;20250;-65
2024/04/22 04:01:40;;;;;;;6.60;5.77;;;3.70;61.80;;;;;;5301315;27;20370;-66
2024/04/22 04:04:09;;;;;;;7.10;6.40;;;3.70;62.40;;;;;;5312413;27;20669;-67
2024/04/22 04:06:34;;;;;;;7.03;6.43;;;3.80;62.00;;;;;;5295519;27;20596;-66
2024/04/22 04:09:02;;;;;;;7.40;6.77;;;3.80;61.90;;;;;;5312553;27;20238;-65
2024/04/22 04:11:33;;;;;;;7.67;6.97;;;3.70;61.90;;;;;;5301345;27;20293;-67
2024/04/22 04:14:02;;;;;;;7.50;6.80;;;3.80;61.60;;;;;;5312393;27;20238;-65
2024/04/22 04:16:27;;;;;;;6.47;5.97;;;3.80;61.30;;;;;;5292517;27;20753;-67
2024/04/22 04:18:56;;;;;;;7.07;6.37;;;3.70;61.50;;;;;;5282186;27;20277;-67
2024/04/22 04:21:21;;;;;;;7.27;6.57;;;3.80;62.00;;;;;;5312614;27;20242;-66
2024/04/22 04:23:49;;;;;;;7.90;7.00;;;3.80;61.40;;;;;;5300651;27;20340;-66
2024/04/22 04:26:15;;;;;;;6.83;6.23;;;3.80;61.60;;;;;;5276603;27;20254;-66
2024/04/22 04:28:43;;;;;;;8.03;7.30;;;3.80;61.60;;;;;;5304869;26;20339;-66
2024/04/22 04:31:09;;;;;;;8.10;6.80;;;3.70;61.90;;;;;;5308622;27;20785;-67
2024/04/22 04:33:37;;;;;;;7.23;6.63;;;3.70;62.40;;;;;;5312236;27;20336;-66
2024/04/22 04:36:03;;;;;;;7.53;6.73;;;3.80;62.50;;;;;;5310700;27;20238;-66
2024/04/22 04:38:31;;;;;;;7.60;6.90;;;3.80;62.50;;;;;;5312006;27;20344;-66
2024/04/22 04:40:56;;;;;;;7.40;6.80;;;3.80;62.20;;;;;;5301215;27;20290;-66
2024/04/22 04:43:25;;;;;;;7.30;6.53;;;3.90;62.20;;;;;;5276912;27;20823;-67
2024/04/22 04:45:50;;;;;;;7.57;6.83;;;3.80;61.70;;;;;;5309137;26;20234;-67
2024/04/22 04:48:19;;;;;;;7.73;6.93;;;3.80;62.50;;;;;;5281487;27;20356;-66
2024/04/22 04:50:44;;;;;;;7.53;6.83;;;3.90;61.40;;;;;;5311772;27;20242;-66
2024/04/22 04:53:12;;;;;;;7.60;6.90;;;3.80;61.30;;;;;;5312632;27;20585;-66
2024/04/22 04:55:38;;;;;;;7.63;7.00;;;3.90;62.20;;;;;;5312276;27;20347;-66
2024/04/22 04:58:06;;;;;;;7.20;6.60;;;3.90;61.90;;;;;;5301990;27;20238;-66
2024/04/22 05:00:32;;;;;;;8.27;6.87;;;3.90;61.90;;;;;;5306490;27;20234;-66
2024/04/22 05:03:00;;;;;;;8.70;7.43;;;3.90;62.10;;;;;;5296573;27;21082;-66
2024/04/22 05:05:26;;;;;;;7.80;6.93;;;3.90;62.50;;;;;;5305288;26;20294;-66
2024/04/22 05:07:55;;;;;;;7.17;6.57;;;3.90;61.50;;;;;;5311480;27;20343;-66
2024/04/22 05:10:21;;;;;;;8.07;7.37;;;3.90;61.30;;;;;;5299029;27;20242;-66
2024/04/22 05:12:49;;;;;;;8.30;7.47;;;3.80;61.80;;;;;;5311612;27;20234;-66
2024/04/22 05:15:15;;;;;;;8.00;7.03;;;3.80;61.90;;;;;;5301240;27;20329;-66
2024/04/22 05:17:43;;;;;;;8.47;7.40;;;3.90;62.00;;;;;;5311419;27;20321;-66
2024/04/22 05:20:08;;;;;;;7.73;7.07;;;3.90;61.70;;;;;;5306877;27;20306;-66
2024/04/22 05:22:37;;;;;;;7.60;6.90;;;3.90;61.90;;;;;;5310977;27;20356;-66
2024/04/22 05:25:02;;;;;;;8.30;7.60;;;3.90;61.90;;;;;;5302408;27;20370;-66
2024/04/22 05:27:31;;;;;;;7.57;6.97;;;3.90;61.40;;;;;;5281465;27;20718;-66
2024/04/22 05:29:56;;;;;;;7.10;6.40;;;3.90;61.20;;;;;;5311523;27;20651;-66
2024/04/22 05:32:26;;;;;;;7.67;6.97;;;3.90;60.90;;;;;;5301814;27;20356;-66
2024/04/22 05:37:39;;;;;;;8.03;7.33;;;3.90;60.20;;;;;;5299150;26;20264;-66
2024/04/22 05:40:07;;;;;;;7.57;6.87;;;4.00;60.40;;;;;;5312112;27;20731;-66
2024/04/22 05:42:35;;;;;;;7.93;7.13;;;4.00;60.40;;;;;;5312329;27;20293;-66
2024/04/22 05:45:04;;;;;;;7.73;7.03;;;3.90;60.60;;;;;;5304648;26;20317;-66
2024/04/22 05:47:32;;;;;;;7.87;7.07;;;4.00;60.70;;;;;;5300813;27;20239;-66
2024/04/22 05:50:02;;;;;;;7.70;7.10;;;3.90;60.50;;;;;;5306086;27;20230;-67
2024/04/22 05:52:30;;;;;;;7.43;6.73;;;3.90;60.50;;;;;;5299183;27;20245;-66
2024/04/22 05:54:55;;;;;;;7.43;6.83;;;3.80;60.40;;;;;;5311080;27;20800;-66
2024/04/22 05:57:24;;;;;;;8.33;6.83;;;3.90;60.10;;;;;;5302120;27;20347;-67
2024/04/22 05:59:49;;;;;;;7.30;6.60;;;3.90;60.10;;;;;;5308250;27;20234;-66
2024/04/22 06:02:17;;;;;;;9.67;8.37;;;4.00;59.90;;;;;;5287453;27;20758;-66
2024/04/22 06:04:43;;;;;;;7.63;6.83;;;3.90;59.70;;;;;;5299026;27;20362;-66
2024/04/22 06:07:11;;;;;;;7.83;7.13;;;3.80;60.20;;;;;;5307438;27;20242;-66
2024/04/22 06:09:37;;;;;;;6.63;6.03;;;3.90;60.30;;;;;;5309792;27;20305;-66
2024/04/22 06:12:05;;;;;;;7.37;6.73;;;3.90;59.50;;;;;;5311827;27;20344;-66
2024/04/22 06:14:31;;;;;;;7.43;6.70;;;3.90;59.80;;;;;;5303911;27;20285;-66
2024/04/22 06:16:59;;;;;;;6.73;6.03;;;3.90;60.00;;;;;;5299327;27;20242;-66
2024/04/22 06:19:24;;;;;;;7.23;6.63;;;3.90;60.00;;;;;;5290513;27;20768;-66
2024/04/22 06:21:53;;;;;;;8.27;6.70;;;3.80;61.50;;;;;;5301907;27;20384;-66
2024/04/22 06:24:18;;;;;;;6.70;6.20;;;3.90;61.60;;;;;;5299012;27;20361;-66
2024/04/22 06:26:47;;;;;;;7.00;6.37;;;3.90;61.10;;;;;;5311319;27;20237;-66
2024/04/22 06:29:12;;;;;;;7.10;6.50;;;3.90;60.90;;;;;;5314281;27;20293;-66
2024/04/22 06:31:40;;;;;;;7.20;6.50;;;4.00;60.50;;;;;;5314361;27;20733;-66
2024/04/22 06:34:06;;;;;;;7.17;6.47;;;4.00;59.50;;;;;;5313564;27;20234;-66
2024/04/22 06:36:34;;;;;;;7.50;6.30;;;4.00;60.30;;;;;;5299355;26;20351;-66
2024/04/22 06:39:00;;;;;;;7.00;6.40;;;4.00;60.10;;;;;;5310931;27;20294;-66
2024/04/22 06:41:28;;;;;;;8.70;6.87;;;4.10;60.00;;;;;;5313023;27;20238;-66
2024/04/22 06:43:53;;;;;;;9.73;6.37;;;4.00;60.30;;;;;;5303505;27;20280;-66
2024/04/22 06:46:22;;;;;;;7.10;6.40;;;4.10;60.50;;;;;;5302086;27;20904;-66
2024/04/22 06:48:47;;;;;;;6.53;5.90;;;4.10;60.70;;;;;;5310625;27;20762;-66
2024/04/22 06:51:16;;;;;;;6.87;6.27;;;4.20;60.80;;;;;;5313080;27;20303;-66
2024/04/22 06:53:41;;;;;;;6.77;6.03;;;4.30;59.30;;;;;;5312347;27;20335;-66
2024/04/22 06:56:09;;;;;;;6.63;5.97;;;4.00;59.70;;;;;;5278136;27;20251;-66
2024/04/22 06:58:36;;;;;;;7.07;6.30;;;4.20;60.00;;;;;;5302098;26;20306;-66
2024/04/22 07:01:05;;;;;;;7.87;6.90;;;4.20;59.80;;;;;;5304246;26;20277;-66
2024/04/22 07:03:31;;;;;;;7.43;6.67;;;4.30;59.00;;;;;;5296068;26;20255;-66
2024/04/22 07:05:59;;;;;;;7.87;6.23;;;4.30;58.60;;;;;;5306852;27;20289;-66
2024/04/22 07:08:25;;;;;;;6.90;6.20;;;4.40;58.10;;;;;;5299974;27;20242;-66
2024/04/22 07:10:54;;;;;;;7.07;6.47;;;4.50;58.60;;;;;;5285402;27;20664;-66
2024/04/22 07:13:20;;;;;;;7.03;6.43;;;4.40;58.50;;;;;;5290279;27;20285;-66
2024/04/22 07:15:48;;;;;;;7.17;6.47;;;4.50;58.60;;;;;;5258109;27;20759;-67
2024/04/22 07:18:13;;;;;;;7.57;6.57;;;4.50;58.10;;;;;;5310264;26;20240;-66
2024/04/22 07:20:42;;;;;;;8.83;6.00;;;4.50;57.50;;;;;;5290335;27;20666;-66
2024/04/22 07:23:07;;;;;;;7.33;6.70;;;4.50;57.60;;;;;;5316579;26;20395;-66
2024/04/22 07:25:36;;;;;;;6.83;6.20;;;4.50;56.50;;;;;;5296945;26;20748;-67
2024/04/22 07:28:02;;;;;;;7.00;6.40;;;4.50;57.60;;;;;;5297717;26;20242;-66
2024/04/22 07:30:30;;;;;;;7.20;6.57;;;4.60;57.30;;;;;;5298415;26;20698;-67
2024/04/22 07:32:56;;;;;;;6.97;6.23;;;4.60;57.00;;;;;;5324413;26;20292;-66
2024/04/22 07:35:24;;;;;;;7.47;6.77;;;4.60;58.00;;;;;;5293912;26;20350;-66
2024/04/22 07:37:50;;;;;;;6.57;5.87;;;4.60;58.20;;;;;;5300585;26;20247;-66
2024/04/22 07:40:18;;;;;;;7.20;6.50;;;4.70;57.00;;;;;;5311108;26;20777;-66
2024/04/22 07:42:43;;;;;;;6.50;5.90;;;4.60;56.30;;;;;;5305346;26;20368;-66
2024/04/22 07:45:12;;;;;;;7.00;6.40;;;4.70;57.00;;;;;;5303189;26;20268;-66
2024/04/22 07:47:37;;;;;;;9.27;6.80;;;4.90;55.10;;;;;;5287426;26;20859;-66
2024/04/22 07:50:06;;;;;;;6.90;6.20;;;4.90;54.60;;;;;;5306096;26;20238;-65
2024/04/22 07:52:31;;;;;;;6.97;6.37;;;4.80;55.20;;;;;;5301069;26;20243;-69
2024/04/22 07:54:59;;;;;;;9.40;5.90;;;4.90;56.50;;;;;;5301537;26;20348;-66
2024/04/22 07:57:25;;;;;;;6.77;6.13;;;4.90;56.70;;;;;;5298858;26;20298;-67
2024/04/22 07:59:53;;;;;;;6.07;5.57;;;5.10;55.40;;;;;;5307336;26;20281;-67
2024/04/22 08:02:19;;;;;;;6.77;6.07;;;5.10;54.80;;;;;;5297964;26;20320;-67
2024/04/22 08:04:47;;;;;;;7.03;6.43;;;5.20;55.60;;;;;;5321566;26;20309;-67
2024/04/22 08:07:13;;;;;;;5.70;5.23;;;5.40;55.00;;;;;;5282554;26;20245;-66
2024/04/22 08:09:41;;;;;;;7.27;6.53;;;5.60;55.20;;;;;;5284079;27;20347;-67
2024/04/22 08:12:07;;;;;;;7.03;6.13;;;5.60;55.10;;;;;;5287540;26;20251;-68
2024/04/22 08:14:35;;;;;;;6.33;5.73;;;5.60;55.20;;;;;;5320158;26;20725;-68
2024/04/22 08:17:00;;;;;;;6.17;5.57;;;5.70;55.20;;;;;;5304128;26;20277;-67
2024/04/22 08:19:29;;;;;;;7.27;6.60;;;5.80;52.70;;;;;;5301522;26;20649;-67
2024/04/22 08:21:54;;;;;;;6.03;5.47;;;6.00;53.30;;;;;;5286714;26;20257;-67
2024/04/22 08:24:24;;;;;;;7.10;6.03;;;6.10;53.70;;;;;;5303330;26;20757;-67
2024/04/22 08:26:50;;;;;;;6.10;5.60;;;6.10;53.80;;;;;;5307383;26;20600;-67
2024/04/22 08:29:18;;;;;;;6.97;5.83;;;6.60;52.60;;;;;;5306903;26;20304;-66
2024/04/22 08:31:44;;;;;;;5.90;5.40;;;6.70;51.10;;;;;;5294984;26;20244;-66
2024/04/22 08:34:12;;;;;;;5.50;5.00;;;6.80;49.90;;;;;;5296705;26;20833;-66
2024/04/22 08:36:38;;;;;;;5.60;5.17;;;7.10;48.10;;;;;;5294394;26;20607;-65
2024/04/22 08:39:07;;;;;;;5.90;5.40;;;6.80;49.70;;;;;;5301878;26;20312;-67
2024/04/22 08:41:35;;;;;;;5.70;5.20;;;6.60;48.60;;;;;;5322300;26;20288;-66
2024/04/22 08:44:01;;;;;;;6.90;5.70;;;6.60;48.60;;;;;;5303673;26;20804;-66
2024/04/22 08:46:29;;;;;;;6.00;5.47;;;6.60;48.30;;;;;;5275068;26;20256;-66
2024/04/22 08:48:54;;;;;;;6.00;5.40;;;6.60;48.20;;;;;;5316605;26;20312;-66
2024/04/22 08:51:23;;;;;;;5.50;4.87;;;6.50;48.40;;;;;;5307849;26;20350;-65
2024/04/22 08:53:48;;;;;;;5.47;4.97;;;6.60;48.10;;;;;;5300811;26;20685;-66
2024/04/22 08:56:18;;;;;;;5.20;4.70;;;7.10;46.40;;;;;;5286673;26;20347;-66
2024/04/22 08:58:43;;;;;;;6.30;5.80;;;7.50;45.70;;;;;;5296497;26;20857;-66
2024/04/22 09:01:12;;;;;;;6.07;5.47;;;7.30;46.20;;;;;;5324398;26;20315;-66
2024/04/22 09:03:37;;;;;;;5.63;5.13;;;7.30;45.90;;;;;;5307045;26;20253;-66
2024/04/22 09:06:05;;;;;;;5.50;5.00;;;7.60;44.70;;;;;;5309809;26;20253;-66
2024/04/22 09:08:31;;;;;;;5.00;4.60;;;8.30;42.90;;;;;;5297499;26;20342;-66
2024/04/22 09:10:59;;;;;;;6.00;5.20;;;8.90;40.90;;;;;;5308280;26;20246;-66
2024/04/22 09:13:25;;;;;;;5.50;5.03;;;10.50;36.70;;;;;;5280967;26;20257;-64
2024/04/22 09:15:53;;;;;;;4.77;4.37;;;9.20;39.00;;;;;;5297850;26;20295;-66
2024/04/22 09:18:19;;;;;;;5.60;5.10;;;8.80;39.90;;;;;;5306207;26;20347;-66
2024/04/22 09:20:47;;;;;;;5.00;4.50;;;8.40;41.10;;;;;;5310024;26;20672;-66
2024/04/22 09:23:13;;;;;;;4.93;4.53;;;9.30;40.30;;;;;;5324790;26;20284;-66
2024/04/22 09:25:41;;;;;;;5.17;4.67;;;9.00;40.90;;;;;;5320547;26;20738;-66
2024/04/22 09:28:06;;;;;;;6.53;4.20;;;8.80;40.60;;;;;;5294301;26;20344;-66
2024/04/22 09:30:40;;;;;;;5.10;4.60;;;9.60;38.90;;;;;;5296637;26;20260;-66
2024/04/22 09:33:05;;;;;;;5.57;5.07;;;9.30;39.50;;;;;;5323827;26;20244;-66
2024/04/22 09:35:33;;;;;;;5.70;5.20;;;9.20;41.00;;;;;;5309960;26;20248;-66
2024/04/22 09:37:59;;;;;;;6.00;5.37;;;8.80;42.20;;;;;;5302636;26;20368;-66
2024/04/22 09:40:27;;;;;;;5.83;5.23;;;8.60;44.30;;;;;;5285571;26;20251;-66
2024/04/22 09:42:53;;;;;;;6.03;5.43;;;8.10;43.90;;;;;;5302353;26;20318;-66
2024/04/22 09:45:21;;;;;;;7.23;5.50;;;8.10;43.50;;;;;;5287704;26;20681;-66
2024/04/22 09:47:47;;;;;;;5.83;4.83;;;7.80;44.80;;;;;;5288406;26;20251;-66
2024/04/22 09:50:15;;;;;;;5.60;5.10;;;7.90;45.90;;;;;;5309826;26;20823;-66
2024/04/22 09:52:40;;;;;;;5.63;5.13;;;8.00;43.80;;;;;;5307622;26;20246;-67
2024/04/22 09:55:09;;;;;;;5.57;5.07;;;7.80;43.70;;;;;;5297460;26;20367;-67
2024/04/22 09:57:34;;;;;;;5.47;4.87;;;7.60;44.20;;;;;;5291827;26;20338;-67
2024/04/22 10:00:03;;;;;;;6.03;5.53;;;7.60;44.20;;;;;;5263629;26;20238;-67
2024/04/22 10:02:28;;;;;;;5.77;5.10;;;8.20;42.70;;;;;;5266158;26;20312;-67
2024/04/22 10:04:57;;;;;;;5.40;4.90;;;8.30;43.10;;;;;;5274334;26;20254;-66
2024/04/22 10:07:22;;;;;;;5.87;5.37;;;8.10;43.10;;;;;;5280229;26;20263;-67
2024/04/22 10:09:50;;;;;;;6.20;5.60;;;7.90;44.10;;;;;;5266986;26;20838;-67
2024/04/22 10:12:16;;;;;;;6.63;5.93;;;7.70;43.80;;;;;;5274476;26;21236;-68
2024/04/22 10:14:44;;;;;;;6.80;6.20;;;7.70;44.60;;;;;;5278725;26;20290;-67
2024/04/22 10:17:10;;;;;;;5.93;5.37;;;8.80;44.50;;;;;;5270655;26;20626;-66
2024/04/22 10:19:38;;;;;;;5.83;4.60;;;9.00;42.30;;;;;;5267288;26;20252;-65
2024/04/22 10:22:04;;;;;;;5.73;5.23;;;8.50;40.90;;;;;;5295614;26;20250;-67
2024/04/22 10:24:32;;;;;;;5.50;5.00;;;8.10;42.10;;;;;;5280982;26;20275;-67
2024/04/22 10:26:58;;;;;;;5.53;5.13;;;8.10;42.00;;;;;;5271280;26;20328;-67
2024/04/22 10:29:26;;;;;;;6.47;5.90;;;7.80;42.90;;;;;;5276194;26;20747;-66
2024/04/22 10:31:51;;;;;;;5.93;5.27;;;7.80;43.90;;;;;;5273468;26;20740;-66
2024/04/22 10:34:19;;;;;;;6.40;5.80;;;7.60;43.50;;;;;;5290748;26;20647;-66
2024/04/22 10:36:45;;;;;;;6.20;5.60;;;7.50;45.80;;;;;;5297118;26;20366;-67
2024/04/22 10:39:13;;;;;;;6.60;6.00;;;7.30;45.60;;;;;;5309354;26;20241;-66
2024/04/22 10:41:39;;;;;;;6.87;6.27;;;7.30;44.90;;;;;;5327727;26;20295;-66
2024/04/22 10:44:07;;;;;;;7.47;5.93;;;7.10;46.00;;;;;;5311733;26;20672;-67
2024/04/22 10:46:33;;;;;;;6.00;5.50;;;7.10;46.20;;;;;;5321673;26;20355;-66
2024/04/22 10:49:01;;;;;;;6.33;5.73;;;7.10;46.20;;;;;;5324905;26;20258;-67
2024/04/22 10:51:26;;;;;;;6.83;6.23;;;7.10;45.80;;;;;;5295058;26;20321;-65
2024/04/22 10:53:55;;;;;;;6.00;5.50;;;7.10;45.50;;;;;;5288853;26;20251;-67
2024/04/22 10:56:20;;;;;;;6.10;5.47;;;7.10;45.50;;;;;;5295471;26;20282;-66
2024/04/22 10:58:49;;;;;;;6.20;5.70;;;7.20;46.30;;;;;;5303918;26;20245;-66
2024/04/22 11:01:14;;;;;;;6.27;5.77;;;7.30;45.80;;;;;;5297564;26;20891;-66
2024/04/22 11:03:42;;;;;;;5.53;5.03;;;7.50;46.00;;;;;;5313285;26;20253;-66
2024/04/22 11:06:10;;;;;;;5.50;5.03;;;7.50;44.10;;;;;;5299234;26;20405;-67
2024/04/22 11:08:39;;;;;;;6.40;5.27;;;7.40;43.90;;;;;;5311484;26;20257;-67
2024/04/22 11:11:04;;;;;;;6.57;5.87;;;7.40;43.90;;;;;;5309751;26;20270;-66
2024/04/22 11:13:33;;;;;;;5.60;5.10;;;7.30;44.40;;;;;;5316025;26;20318;-67
2024/04/22 11:15:58;;;;;;;6.43;5.83;;;7.40;44.80;;;;;;5270165;27;20300;-67
2024/04/22 11:18:27;;;;;;;6.37;5.60;;;7.40;44.70;;;;;;5317080;26;20249;-66
2024/04/22 11:20:55;;;;;;;6.87;6.20;;;7.30;45.30;;;;;;5315637;26;20257;-66
2024/04/22 11:23:21;;;;;;;6.63;6.00;;;7.20;44.90;;;;;;5316160;26;20255;-66
2024/04/22 11:25:49;;;;;;;5.90;5.40;;;7.10;44.40;;;;;;5302982;26;20328;-67
2024/04/22 11:28:14;;;;;;;5.73;5.33;;;7.10;44.40;;;;;;5308818;26;20316;-66
2024/04/22 11:30:43;;;;;;;6.60;6.00;;;7.30;43.70;;;;;;5316405;26;20255;-67
2024/04/22 11:33:08;;;;;;;9.23;6.77;;;7.30;44.10;;;;;;5297321;26;20721;-67
2024/04/22 11:35:37;;;;;;;5.33;4.93;;;7.50;44.20;;;;;;5326371;26;20367;-67
2024/04/22 11:38:02;;;;;;;6.00;5.40;;;7.60;43.90;;;;;;5305692;26;20369;-67
2024/04/22 11:40:31;;;;;;;5.77;5.27;;;7.50;43.60;;;;;;5337534;26;20260;-67
2024/04/22 11:42:56;;;;;;;5.80;5.30;;;7.50;43.70;;;;;;5294748;27;20309;-67
2024/04/22 11:45:25;;;;;;;6.47;5.70;;;7.60;43.90;;;;;;5306337;26;20365;-67
2024/04/22 11:47:51;;;;;;;6.70;6.20;;;7.70;43.60;;;;;;5288678;26;20593;-67
2024/04/22 11:50:19;;;;;;;6.47;5.90;;;7.50;43.40;;;;;;5330134;26;20233;-67
2024/04/22 11:52:44;;;;;;;6.87;6.17;;;7.40;45.40;;;;;;5299692;26;20240;-70
2024/04/22 11:55:13;;;;;;;9.17;6.67;;;7.60;46.50;;;;;;5296939;26;20246;-70
2024/04/22 11:57:40;;;;;;;11.70;7.97;;;7.60;45.90;;;;;;5297332;26;20343;-70
2024/04/22 12:00:09;;;;;;;6.37;5.77;;;8.00;46.50;;;;;;5314113;26;20314;-66
2024/04/22 12:02:34;;;;;;;5.77;5.17;;;7.90;43.50;;;;;;5316450;26;20311;-66
2024/04/22 12:05:09;;;;;;;6.30;5.70;;;7.60;43.50;;;;;;5319461;26;20349;-69
2024/04/22 12:07:36;;;;;;;6.37;5.87;;;7.60;44.00;;;;;;5301575;26;20244;-66
2024/04/22 12:10:04;;;;;;;6.90;6.20;;;7.70;44.30;;;;;;5302740;26;20348;-66
2024/04/22 12:12:30;;;;;;;6.50;5.57;;;7.40;44.30;;;;;;5316423;26;20280;-67
2024/04/22 12:14:58;;;;;;;6.10;5.60;;;7.50;44.40;;;;;;5284437;27;20388;-67
2024/04/22 12:17:24;;;;;;;5.77;5.27;;;7.50;44.20;;;;;;5330869;26;20348;-68
2024/04/22 12:19:52;;;;;;;6.20;5.60;;;7.50;44.30;;;;;;5297838;26;20254;-67
2024/04/22 12:22:18;;;;;;;7.13;5.73;;;7.30;44.80;;;;;;5326501;26;20819;-67
2024/04/22 12:24:46;;;;;;;7.37;5.80;;;7.30;45.20;;;;;;5302355;26;20239;-68
2024/04/22 12:27:12;;;;;;;6.17;5.63;;;7.30;45.10;;;;;;5320785;26;20304;-67
2024/04/22 12:29:40;;;;;;;6.40;5.90;;;7.30;45.40;;;;;;5321110;26;20359;-67
2024/04/22 12:32:05;;;;;;;5.53;5.03;;;7.30;44.30;;;;;;5326556;26;20237;-66
2024/04/22 12:34:34;;;;;;;5.70;5.30;;;7.40;43.90;;;;;;5331363;26;20326;-67
2024/04/22 12:36:59;;;;;;;7.07;5.50;;;7.30;43.40;;;;;;5304477;26;20261;-67
2024/04/22 12:39:28;;;;;;;6.33;5.10;;;7.30;43.30;;;;;;5328372;26;20574;-67
2024/04/22 12:41:54;;;;;;;6.10;5.50;;;7.30;43.40;;;;;;5325398;26;20237;-66
2024/04/22 12:44:22;;;;;;;7.73;5.50;;;7.20;43.70;;;;;;5298257;26;20244;-66
2024/04/22 12:52:21;;;;;;;5.13;4.63;;;7.20;43.40;;;;;;5319136;26;20266;-66
2024/04/22 12:54:49;;;;;;;5.83;5.33;;;7.30;42.70;;;;;;5302239;26;20291;-66
2024/04/22 12:57:17;;;;;;;5.40;4.90;;;7.10;43.10;;;;;;5286106;26;20369;-66
2024/04/22 12:59:46;;;;;;;5.60;5.10;;;7.20;42.80;;;;;;5305008;26;20326;-65
2024/04/22 13:02:14;;;;;;;5.87;5.27;;;7.50;42.60;;;;;;5325320;26;20849;-65
2024/04/22 13:04:42;;;;;;;5.13;4.73;;;7.60;41.60;;;;;;5313789;26;20738;-65
2024/04/22 13:07:10;;;;;;;6.37;5.30;;;7.50;41.80;;;;;;5327030;26;20365;-65
2024/04/22 13:09:39;;;;;;;5.67;5.17;;;7.60;42.30;;;;;;5331033;26;20284;-65